Time;durP1;ratioP1;P1;durP2;ratioP2;P2;SDS_P1;SDS_P2;PMS_P1;PMS_P2;Temp;Humidity;BMP_temperature;BMP_pressure;BME280_temperature;BME280_humidity;BME280_pressure;Samples;Min_cycle;Max_cycle;Signal;HPM_P1;HPM_P2
2022/10/13 00:01:53;;;;;;;12.63;6.60;;;8.10;1.00;;;;;;5030156;28;20247;-77
2022/10/13 00:04:20;;;;;;;12.93;6.85;;;8.00;1.00;;;;;;5018971;28;20241;-80
2022/10/13 00:06:47;;;;;;;10.88;6.53;;;8.00;1.00;;;;;;5018855;28;20234;-80
2022/10/13 00:09:14;;;;;;;13.15;7.45;;;8.00;1.00;;;;;;5022318;28;20230;-78
2022/10/13 00:11:40;;;;;;;15.10;7.05;;;8.00;1.00;;;;;;5021955;28;20241;-78
2022/10/13 00:14:07;;;;;;;14.82;7.68;;;8.00;1.00;;;;;;5018882;28;20325;-80
2022/10/13 00:16:36;;;;;;;13.52;8.02;;;7.90;1.00;;;;;;5024052;28;20243;-78
2022/10/13 00:19:03;;;;;;;12.82;6.97;;;7.90;1.00;;;;;;5025255;28;20281;-77
2022/10/13 00:21:33;;;;;;;14.75;7.07;;;7.90;1.00;;;;;;5007180;28;20254;-77
2022/10/13 00:24:00;;;;;;;13.18;6.68;;;7.90;1.00;;;;;;5024215;28;20238;-78
2022/10/13 00:26:27;;;;;;;14.48;7.38;;;7.90;1.00;;;;;;5021807;28;20242;-80
2022/10/13 00:28:55;;;;;;;12.77;6.43;;;7.90;1.00;;;;;;5021072;28;20238;-79
2022/10/13 00:31:23;;;;;;;11.60;7.47;;;7.90;1.00;;;;;;5022610;28;21002;-78
2022/10/13 00:33:52;;;;;;;12.10;6.93;;;7.90;1.00;;;;;;5020907;28;20972;-78
2022/10/13 00:36:20;;;;;;;12.77;7.07;;;7.80;1.00;;;;;;5024452;28;20242;-79
2022/10/13 00:38:47;;;;;;;12.88;7.93;;;7.80;1.00;;;;;;5021787;28;20246;-78
2022/10/13 00:41:14;;;;;;;12.52;7.63;;;7.80;1.00;;;;;;5025554;28;20234;-78
2022/10/13 00:43:55;;;;;;;11.88;7.80;;;7.70;1.00;;;;;;5023020;28;20328;-77
2022/10/13 00:46:24;;;;;;;12.20;8.40;;;7.70;1.00;;;;;;5026865;28;20277;-77
2022/10/13 00:48:54;;;;;;;14.43;7.20;;;7.70;1.00;;;;;;5024690;28;20240;-78
2022/10/13 00:51:26;;;;;;;12.68;7.97;;;7.60;1.00;;;;;;5025535;28;20244;-78
2022/10/13 00:53:54;;;;;;;11.07;7.65;;;7.60;1.00;;;;;;5023257;28;20633;-78
2022/10/13 00:56:24;;;;;;;16.73;8.90;;;7.60;1.00;;;;;;5018983;28;20234;-77
2022/10/13 00:58:52;;;;;;;11.38;7.55;;;7.50;1.00;;;;;;5023306;28;20256;-77
2022/10/13 01:01:19;;;;;;;11.50;8.35;;;7.50;1.00;;;;;;5023454;28;20264;-78
2022/10/13 01:03:47;;;;;;;14.38;7.65;;;7.40;1.00;;;;;;5024767;28;20238;-77
2022/10/13 01:06:16;;;;;;;15.23;7.82;;;7.40;1.00;;;;;;5024642;28;20726;-78
2022/10/13 01:08:43;;;;;;;11.30;7.25;;;7.40;1.00;;;;;;5019781;28;20229;-78
2022/10/13 01:11:32;;;;;;;14.65;7.40;;;7.40;1.00;;;;;;5021845;28;20244;-78
2022/10/13 01:14:17;;;;;;;12.90;8.00;;;7.40;1.00;;;;;;5024358;28;20234;-78
2022/10/13 01:16:52;;;;;;;14.45;8.77;;;7.40;1.00;;;;;;5024497;28;20230;-78
2022/10/13 01:19:55;;;;;;;14.52;7.95;;;7.40;1.00;;;;;;5028497;28;20230;-77
2022/10/13 01:22:39;;;;;;;15.05;8.13;;;7.30;1.00;;;;;;5028524;28;20230;-79
2022/10/13 01:25:30;;;;;;;12.52;6.90;;;7.30;1.00;;;;;;5012447;28;20238;-78
2022/10/13 01:28:18;;;;;;;10.65;7.40;;;7.30;1.00;;;;;;5020359;28;20222;-79
2022/10/13 01:30:59;;;;;;;16.08;8.70;;;7.30;1.00;;;;;;5022465;28;20224;-81
2022/10/13 01:33:34;;;;;;;13.98;7.97;;;7.30;1.00;;;;;;5020544;28;20233;-80
2022/10/13 01:36:08;;;;;;;15.05;7.65;;;7.20;1.00;;;;;;5024695;28;20284;-80
2022/10/13 01:38:43;;;;;;;14.90;7.50;;;7.20;1.00;;;;;;5022190;28;20263;-80
2022/10/13 01:41:15;;;;;;;11.70;7.53;;;7.20;1.00;;;;;;5022769;28;21083;-80
2022/10/13 01:43:47;;;;;;;14.30;8.38;;;7.20;1.00;;;;;;5019743;28;20255;-80
2022/10/13 01:46:20;;;;;;;28.70;15.43;;;7.20;1.00;;;;;;5021293;28;20245;-81
2022/10/13 01:48:46;;;;;;;13.63;7.90;;;7.20;1.00;;;;;;5023601;28;20237;-79
2022/10/13 01:51:18;;;;;;;12.18;7.90;;;7.20;1.00;;;;;;5020986;28;20245;-81
2022/10/13 01:53:46;;;;;;;12.98;7.97;;;7.20;1.00;;;;;;5021851;28;20238;-80
2022/10/13 01:56:14;;;;;;;11.95;7.90;;;7.20;1.00;;;;;;5021541;28;20244;-80
2022/10/13 01:58:41;;;;;;;17.75;7.50;;;7.00;1.00;;;;;;5021015;28;20242;-81
2022/10/13 02:01:21;;;;;;;14.90;8.20;;;7.00;1.00;;;;;;5020371;28;20239;-80
2022/10/13 02:03:57;;;;;;;12.68;8.27;;;7.00;1.00;;;;;;5019489;28;20861;-80
2022/10/13 02:06:30;;;;;;;14.13;7.55;;;7.00;1.00;;;;;;5023006;28;20232;-80
2022/10/13 02:09:04;;;;;;;12.38;8.25;;;7.10;1.00;;;;;;5022025;28;20248;-80
2022/10/13 02:11:31;;;;;;;13.40;7.85;;;7.20;1.00;;;;;;5022871;28;20997;-80
2022/10/13 02:14:05;;;;;;;11.73;7.47;;;7.20;1.00;;;;;;5019944;28;20249;-81
2022/10/13 02:16:37;;;;;;;13.32;7.43;;;7.30;1.00;;;;;;5023997;28;20245;-80
2022/10/13 02:19:06;;;;;;;17.05;8.20;;;7.40;1.00;;;;;;5023463;28;20245;-80
2022/10/13 02:21:34;;;;;;;13.85;8.07;;;7.30;1.00;;;;;;5021759;28;20240;-81
2022/10/13 02:24:01;;;;;;;16.88;8.65;;;7.40;1.00;;;;;;5025582;28;20233;-80
2022/10/13 02:26:29;;;;;;;15.98;8.10;;;7.40;1.00;;;;;;5022422;28;20244;-81
2022/10/13 02:28:56;;;;;;;13.20;10.07;;;7.40;1.00;;;;;;5022678;28;20246;-80
2022/10/13 02:31:24;;;;;;;14.65;8.05;;;7.30;1.00;;;;;;5021934;28;20266;-79
2022/10/13 02:33:52;;;;;;;17.65;8.55;;;7.40;1.00;;;;;;5020868;28;20300;-79
2022/10/13 02:36:19;;;;;;;12.48;8.18;;;7.30;1.00;;;;;;5024343;28;20249;-79
2022/10/13 02:38:46;;;;;;;14.95;9.23;;;7.30;1.00;;;;;;5027784;28;20321;-79
2022/10/13 02:41:13;;;;;;;16.10;8.82;;;7.30;1.00;;;;;;5024111;28;20238;-80
2022/10/13 02:43:40;;;;;;;14.13;8.57;;;7.20;1.00;;;;;;5022836;28;20792;-81
2022/10/13 02:46:06;;;;;;;12.27;7.35;;;7.10;1.00;;;;;;5023362;28;20237;-81
2022/10/13 02:48:33;;;;;;;19.67;10.45;;;7.10;1.00;;;;;;5025617;28;21036;-81
2022/10/13 02:51:01;;;;;;;16.05;8.40;;;7.10;1.00;;;;;;5020984;28;20981;-80
2022/10/13 02:53:28;;;;;;;12.85;8.73;;;7.00;1.00;;;;;;5021408;28;22073;-81
2022/10/13 02:55:59;;;;;;;15.55;8.60;;;6.90;1.00;;;;;;5024323;28;20329;-80
2022/10/13 02:58:29;;;;;;;16.98;9.13;;;6.90;1.00;;;;;;5019787;28;20230;-81
2022/10/13 03:01:06;;;;;;;14.85;8.55;;;6.90;1.00;;;;;;5018890;28;20285;-80
2022/10/13 03:03:40;;;;;;;15.00;9.18;;;6.90;1.00;;;;;;5026637;28;20240;-79
2022/10/13 03:06:10;;;;;;;14.05;8.50;;;6.80;1.00;;;;;;5013013;28;20446;-81
2022/10/13 03:08:38;;;;;;;18.80;8.90;;;6.90;1.00;;;;;;5006338;28;20238;-78
2022/10/13 03:11:07;;;;;;;18.60;9.80;;;6.90;1.00;;;;;;5023777;28;20237;-80
2022/10/13 03:13:36;;;;;;;16.70;9.35;;;6.90;1.00;;;;;;5023010;28;20913;-77
2022/10/13 03:16:05;;;;;;;13.75;8.80;;;6.80;1.00;;;;;;5011498;28;20230;-79
2022/10/13 03:18:32;;;;;;;16.13;9.15;;;6.70;1.00;;;;;;5020780;28;20350;-79
2022/10/13 03:21:01;;;;;;;13.82;8.88;;;6.70;1.00;;;;;;5021422;28;20234;-82
2022/10/13 03:23:31;;;;;;;13.35;8.65;;;6.70;1.00;;;;;;5019603;28;21106;-80
2022/10/13 03:25:59;;;;;;;19.10;10.55;;;6.70;1.00;;;;;;5020249;28;20238;-79
2022/10/13 03:28:27;;;;;;;13.43;9.07;;;6.60;1.00;;;;;;5018384;28;20278;-78
2022/10/13 03:31:00;;;;;;;19.30;10.25;;;6.50;1.00;;;;;;5019425;28;20235;-79
2022/10/13 03:33:27;;;;;;;20.17;10.55;;;6.50;1.00;;;;;;5022194;28;20246;-79
2022/10/13 03:35:54;;;;;;;17.38;9.50;;;6.50;1.00;;;;;;5020267;28;20235;-79
2022/10/13 03:38:21;;;;;;;14.35;8.88;;;6.50;1.00;;;;;;5022583;28;20239;-80
2022/10/13 03:40:49;;;;;;;16.92;10.18;;;6.50;1.00;;;;;;5017954;28;20249;-79
2022/10/13 03:43:16;;;;;;;21.98;10.50;;;6.50;1.00;;;;;;5021063;28;20320;-78
2022/10/13 03:45:42;;;;;;;16.10;9.98;;;6.40;1.00;;;;;;5020631;28;21077;-80
2022/10/13 03:48:10;;;;;;;17.17;9.45;;;6.40;1.00;;;;;;5021357;28;20245;-79
2022/10/13 03:50:37;;;;;;;15.50;9.50;;;6.40;1.00;;;;;;5021975;28;20238;-79
2022/10/13 03:53:06;;;;;;;15.93;10.07;;;6.50;1.00;;;;;;5025676;28;20246;-80
2022/10/13 03:55:33;;;;;;;22.50;10.65;;;6.40;1.00;;;;;;5025220;28;21084;-79
2022/10/13 03:58:01;;;;;;;19.25;11.40;;;6.40;1.00;;;;;;5023732;28;20267;-81
2022/10/13 04:00:28;;;;;;;17.13;9.18;;;6.40;1.00;;;;;;5025514;28;20234;-81
2022/10/13 04:02:56;;;;;;;16.70;8.88;;;6.40;1.00;;;;;;5022256;28;20252;-79
2022/10/13 04:05:25;;;;;;;17.27;9.98;;;6.40;1.00;;;;;;5021680;28;20296;-81
2022/10/13 04:07:52;;;;;;;22.20;13.45;;;6.40;1.00;;;;;;5023447;28;20238;-79
2022/10/13 04:10:19;;;;;;;15.02;10.27;;;6.50;1.00;;;;;;5028088;28;20229;-81
2022/10/13 04:12:51;;;;;;;18.38;9.15;;;6.50;1.00;;;;;;5022483;28;20253;-79
2022/10/13 04:15:19;;;;;;;19.73;11.57;;;6.60;1.00;;;;;;5024628;28;20280;-79
2022/10/13 04:17:46;;;;;;;18.77;12.05;;;6.60;1.00;;;;;;5025292;28;20234;-79
2022/10/13 04:20:12;;;;;;;16.05;9.13;;;6.70;1.00;;;;;;5028973;28;20240;-80
2022/10/13 04:22:39;;;;;;;27.38;10.68;;;6.80;1.00;;;;;;5026576;28;20724;-78
2022/10/13 04:25:08;;;;;;;19.75;10.10;;;6.80;1.00;;;;;;5027944;28;20238;-77
2022/10/13 04:27:37;;;;;;;20.00;11.63;;;6.90;1.00;;;;;;5023210;28;20238;-78
2022/10/13 04:30:05;;;;;;;21.35;12.35;;;6.90;1.00;;;;;;5028731;28;20834;-77
2022/10/13 04:32:35;;;;;;;17.50;11.20;;;7.00;1.00;;;;;;5023727;28;20256;-78
2022/10/13 04:35:03;;;;;;;16.15;9.60;;;7.00;1.00;;;;;;5024066;28;20971;-78
2022/10/13 04:37:31;;;;;;;19.02;10.35;;;7.10;1.00;;;;;;5024787;28;20241;-78
2022/10/13 04:39:59;;;;;;;19.10;10.38;;;7.10;1.00;;;;;;5026329;28;20308;-78
2022/10/13 04:42:29;;;;;;;18.70;10.88;;;7.20;1.00;;;;;;5023483;28;20697;-79
2022/10/13 04:44:56;;;;;;;23.02;11.10;;;7.30;1.00;;;;;;5024944;28;20249;-77
2022/10/13 04:47:23;;;;;;;16.15;10.38;;;7.30;1.00;;;;;;5024357;28;20366;-80
2022/10/13 04:49:51;;;;;;;18.05;10.13;;;7.30;1.00;;;;;;5014471;28;20238;-78
2022/10/13 04:52:20;;;;;;;16.85;9.95;;;7.30;1.00;;;;;;5023595;28;20337;-80
2022/10/13 04:54:48;;;;;;;21.00;10.35;;;7.40;1.00;;;;;;5026042;28;20242;-79
2022/10/13 04:57:20;;;;;;;14.77;10.50;;;7.30;1.00;;;;;;5025583;28;20245;-80
2022/10/13 04:59:47;;;;;;;16.70;9.60;;;7.30;1.00;;;;;;5026616;28;20238;-80
2022/10/13 05:02:14;;;;;;;17.45;10.57;;;7.30;1.00;;;;;;5026033;28;20326;-80
2022/10/13 05:04:40;;;;;;;18.73;9.90;;;7.30;1.00;;;;;;5024023;28;20839;-79
2022/10/13 05:07:09;;;;;;;16.85;10.13;;;7.30;1.00;;;;;;5026610;28;20226;-79
2022/10/13 05:09:36;;;;;;;15.90;10.63;;;7.40;1.00;;;;;;5023185;28;20222;-81
2022/10/13 05:12:03;;;;;;;18.67;10.75;;;7.40;1.00;;;;;;5025853;28;20238;-79
2022/10/13 05:14:33;;;;;;;18.23;9.68;;;7.40;1.00;;;;;;5024241;28;20271;-82
2022/10/13 05:17:01;;;;;;;17.25;9.70;;;7.40;1.00;;;;;;5025555;28;20701;-80
2022/10/13 05:19:28;;;;;;;15.13;10.00;;;7.40;1.00;;;;;;5025291;28;20241;-79
2022/10/13 05:21:55;;;;;;;23.80;11.52;;;7.40;1.00;;;;;;5023614;28;20237;-80
2022/10/13 05:24:29;;;;;;;19.88;10.77;;;7.40;1.00;;;;;;5027311;28;21084;-78
2022/10/13 05:26:58;;;;;;;20.30;10.35;;;7.40;1.00;;;;;;5022519;28;21125;-81
2022/10/13 05:29:26;;;;;;;20.05;11.10;;;7.50;1.00;;;;;;5026198;28;20226;-80
2022/10/13 05:31:52;;;;;;;18.27;12.98;;;7.50;1.00;;;;;;5036480;28;20241;-79
2022/10/13 05:34:21;;;;;;;17.90;11.10;;;7.50;1.00;;;;;;5026031;28;20365;-79
2022/10/13 05:36:47;;;;;;;17.15;12.75;;;7.50;1.00;;;;;;5023120;28;20251;-80
2022/10/13 05:39:15;;;;;;;17.80;11.27;;;7.50;1.00;;;;;;5026050;28;20276;-82
2022/10/13 05:41:44;;;;;;;16.33;10.27;;;7.50;1.00;;;;;;5024601;28;20241;-82
2022/10/13 05:44:11;;;;;;;17.98;10.73;;;7.50;1.00;;;;;;5026609;28;20240;-77
2022/10/13 05:46:38;;;;;;;17.20;10.38;;;7.60;1.00;;;;;;5024760;28;20725;-76
2022/10/13 05:49:05;;;;;;;22.50;12.77;;;7.60;1.00;;;;;;5026041;28;20218;-78
2022/10/13 05:51:37;;;;;;;22.98;11.50;;;7.70;1.00;;;;;;5027090;28;20239;-80
2022/10/13 05:54:10;;;;;;;18.65;11.43;;;7.70;1.00;;;;;;4996439;28;20241;-78
2022/10/13 05:56:50;;;;;;;18.70;9.38;;;7.70;1.00;;;;;;5024318;28;20246;-78
2022/10/13 05:59:20;;;;;;;18.77;10.75;;;7.80;1.00;;;;;;5025276;28;20233;-77
2022/10/13 06:01:50;;;;;;;16.67;11.35;;;7.80;1.00;;;;;;5019525;28;20972;-78
2022/10/13 06:04:20;;;;;;;17.42;11.63;;;7.80;1.00;;;;;;5024384;28;20242;-77
2022/10/13 06:06:50;;;;;;;14.95;10.65;;;7.90;1.00;;;;;;5024241;28;20324;-77
2022/10/13 06:09:17;;;;;;;19.48;11.27;;;8.00;1.00;;;;;;5023483;28;20249;-78
2022/10/13 06:11:45;;;;;;;18.23;9.95;;;8.00;1.00;;;;;;5020237;28;20323;-77
2022/10/13 06:14:11;;;;;;;18.17;12.43;;;8.00;1.00;;;;;;5021313;28;20245;-77
2022/10/13 06:16:40;;;;;;;15.30;10.65;;;8.00;1.00;;;;;;5023554;28;20238;-77
2022/10/13 06:19:10;;;;;;;17.38;11.05;;;8.10;1.00;;;;;;5022172;28;20243;-77
2022/10/13 06:21:42;;;;;;;16.65;10.25;;;8.00;1.00;;;;;;5024538;28;20379;-79
2022/10/13 06:24:09;;;;;;;17.73;11.35;;;8.00;1.00;;;;;;5024063;28;20238;-78
2022/10/13 06:26:38;;;;;;;19.75;11.02;;;8.00;1.00;;;;;;5024057;28;20245;-79
2022/10/13 06:29:05;;;;;;;19.58;12.02;;;8.00;1.00;;;;;;5021933;28;20628;-77
2022/10/13 06:31:32;;;;;;;22.10;11.27;;;7.90;1.00;;;;;;5025889;28;20687;-77
2022/10/13 06:34:00;;;;;;;18.80;10.50;;;7.90;1.00;;;;;;5027329;28;21041;-78
2022/10/13 06:36:27;;;;;;;18.73;11.80;;;7.90;1.00;;;;;;5025304;28;20238;-77
2022/10/13 06:38:55;;;;;;;20.92;11.18;;;7.90;1.00;;;;;;5027076;28;20238;-76
2022/10/13 06:41:21;;;;;;;18.40;10.93;;;7.90;1.00;;;;;;5025114;28;20272;-78
2022/10/13 06:43:50;;;;;;;17.05;9.98;;;7.90;1.00;;;;;;5021659;28;20244;-77
2022/10/13 06:46:17;;;;;;;21.27;16.05;;;8.00;1.00;;;;;;5026245;28;20246;-78
2022/10/13 06:48:44;;;;;;;19.17;11.23;;;8.00;1.00;;;;;;5022208;28;20260;-76
2022/10/13 06:51:12;;;;;;;18.23;12.30;;;8.00;1.00;;;;;;5026710;28;20242;-77
2022/10/13 06:53:39;;;;;;;18.38;11.55;;;8.10;1.00;;;;;;5022903;28;20962;-79
2022/10/13 06:56:08;;;;;;;19.55;11.70;;;8.20;1.00;;;;;;5024900;28;20269;-76
2022/10/13 06:58:35;;;;;;;21.85;11.88;;;8.00;1.00;;;;;;5024924;28;20247;-78
2022/10/13 07:01:03;;;;;;;18.17;12.35;;;8.10;1.00;;;;;;5025551;28;21050;-77
2022/10/13 07:03:29;;;;;;;18.30;12.57;;;8.10;1.00;;;;;;5028058;28;20242;-82
2022/10/13 07:06:01;;;;;;;22.95;16.85;;;8.20;1.00;;;;;;5030999;28;20234;-81
2022/10/13 07:08:30;;;;;;;23.02;13.82;;;8.50;1.00;;;;;;5031659;28;20284;-81
2022/10/13 07:10:57;;;;;;;21.52;12.10;;;8.70;1.00;;;;;;5025525;28;20234;-81
2022/10/13 07:13:24;;;;;;;17.65;12.57;;;8.90;1.00;;;;;;5024339;28;20298;-81
2022/10/13 07:15:51;;;;;;;22.40;12.50;;;9.10;1.00;;;;;;5024978;28;20246;-80
2022/10/13 07:18:18;;;;;;;21.13;11.98;;;9.20;1.00;;;;;;5025808;28;20454;-82
2022/10/13 07:20:46;;;;;;;18.00;12.00;;;9.20;1.00;;;;;;5026199;28;20285;-82
2022/10/13 07:23:13;;;;;;;21.10;12.05;;;9.20;1.00;;;;;;5025268;28;20272;-82
2022/10/13 07:25:41;;;;;;;21.38;12.80;;;9.20;1.00;;;;;;5023162;28;20328;-82
2022/10/13 07:28:08;;;;;;;22.33;13.15;;;9.30;1.00;;;;;;5027853;28;20296;-82
2022/10/13 07:30:35;;;;;;;24.13;13.23;;;9.40;1.00;;;;;;5030108;28;20244;-82
2022/10/13 07:33:02;;;;;;;22.35;12.98;;;9.50;1.00;;;;;;5028329;28;20234;-82
2022/10/13 07:35:29;;;;;;;17.30;12.32;;;9.70;1.00;;;;;;5028141;28;20229;-82
2022/10/13 07:37:56;;;;;;;20.63;12.25;;;9.80;1.00;;;;;;5030812;28;20999;-81
2022/10/13 07:40:23;;;;;;;20.27;12.25;;;9.90;1.00;;;;;;5024486;28;20960;-82
2022/10/13 07:42:51;;;;;;;20.13;11.93;;;10.00;1.00;;;;;;5025678;28;20250;-81
2022/10/13 07:45:19;;;;;;;19.63;12.38;;;10.20;1.00;;;;;;5034563;28;20996;-80
2022/10/13 07:47:48;;;;;;;23.33;12.87;;;10.10;1.00;;;;;;5033032;28;20291;-81
2022/10/13 07:50:19;;;;;;;18.70;12.03;;;9.90;1.00;;;;;;5035765;28;20513;-81
2022/10/13 07:52:49;;;;;;;25.30;13.53;;;9.80;1.00;;;;;;5034579;28;20464;-80
2022/10/13 07:55:22;;;;;;;17.73;12.68;;;9.90;1.00;;;;;;5034302;28;20481;-79
2022/10/13 07:57:59;;;;;;;23.23;14.97;;;9.90;1.00;;;;;;5038045;28;20274;-80
2022/10/13 08:00:31;;;;;;;21.80;13.98;;;10.00;1.00;;;;;;5036161;28;20464;-81
2022/10/13 08:02:59;;;;;;;19.83;12.95;;;10.30;1.00;;;;;;5034559;28;20242;-81
2022/10/13 08:05:30;;;;;;;24.45;14.32;;;10.50;1.00;;;;;;5036703;28;20241;-82
2022/10/13 08:08:01;;;;;;;20.87;14.43;;;10.40;1.00;;;;;;5030434;28;20250;-80
2022/10/13 08:10:31;;;;;;;19.77;13.15;;;10.60;1.00;;;;;;5036500;28;21091;-79
2022/10/13 08:13:02;;;;;;;19.57;13.13;;;10.70;1.00;;;;;;5035361;28;20226;-82
2022/10/13 08:15:30;;;;;;;23.43;13.77;;;11.10;1.00;;;;;;5031900;28;20460;-82
2022/10/13 08:18:00;;;;;;;23.60;14.57;;;11.40;1.00;;;;;;5031259;28;21115;-80
2022/10/13 08:20:29;;;;;;;19.47;13.37;;;11.90;1.00;;;;;;5035694;28;20476;-80
2022/10/13 08:22:58;;;;;;;21.47;15.13;;;12.40;1.00;;;;;;5032542;28;21374;-80
2022/10/13 08:25:29;;;;;;;19.37;14.30;;;12.90;1.00;;;;;;5037086;28;20431;-80
2022/10/13 08:27:56;;;;;;;20.07;14.03;;;13.60;1.00;;;;;;5015514;28;20442;-79
2022/10/13 08:30:24;;;;;;;19.47;14.27;;;14.50;1.00;;;;;;5024858;28;20588;-81
2022/10/13 08:32:51;;;;;;;16.27;12.70;;;14.90;1.00;;;;;;5028883;28;20540;-80
2022/10/13 08:35:18;;;;;;;18.40;13.07;;;14.90;1.00;;;;;;5027294;28;20478;-81
2022/10/13 08:37:50;;;;;;;18.50;13.40;;;14.80;1.00;;;;;;5028329;28;20458;-82
2022/10/13 08:40:21;;;;;;;15.47;12.03;;;14.70;1.00;;;;;;5027497;28;20461;-82
2022/10/13 08:42:48;;;;;;;18.40;13.40;;;14.80;1.00;;;;;;5027603;28;20835;-80
2022/10/13 08:45:21;;;;;;;15.40;12.97;;;15.30;1.00;;;;;;5027919;28;20458;-81
2022/10/13 08:47:54;;;;;;;23.30;12.70;;;16.00;1.00;;;;;;5037110;28;20425;-80
2022/10/13 08:50:24;;;;;;;19.43;13.30;;;16.40;1.00;;;;;;5043466;28;20505;-83
2022/10/13 08:52:55;;;;;;;17.63;12.53;;;16.40;1.00;;;;;;5177286;22;20747;-84
2022/10/13 08:55:30;;;;;;;16.90;14.57;;;16.20;1.00;;;;;;5036806;28;20461;-84
2022/10/13 08:58:09;;;;;;;18.73;13.87;;;16.00;1.00;;;;;;5043539;28;20413;-83
2022/10/13 09:00:38;;;;;;;15.70;13.27;;;16.10;1.00;;;;;;5025626;28;21804;-84
2022/10/13 09:03:22;;;;;;;23.97;14.13;;;16.30;1.00;;;;;;5031800;28;21190;-85
2022/10/13 09:06:02;;;;;;;17.80;13.10;;;16.40;1.00;;;;;;5032674;28;21232;-84
2022/10/13 09:08:39;;;;;;;17.83;14.37;;;16.50;1.00;;;;;;5040054;28;20451;-85
2022/10/13 09:11:11;;;;;;;15.30;13.10;;;16.40;1.00;;;;;;5034821;28;20475;-85
2022/10/13 09:13:38;;;;;;;24.27;14.83;;;16.50;1.00;;;;;;5028595;28;20469;-82
2022/10/13 09:16:06;;;;;;;18.60;15.43;;;16.50;1.00;;;;;;5033969;28;20472;-84
2022/10/13 09:18:36;;;;;;;15.80;12.90;;;16.50;1.00;;;;;;5019507;28;20649;-81
2022/10/13 09:21:19;;;;;;;20.03;14.43;;;16.50;1.00;;;;;;5032630;28;20441;-82
2022/10/13 09:23:49;;;;;;;16.87;13.03;;;16.40;1.00;;;;;;5030505;28;21023;-82
2022/10/13 09:26:20;;;;;;;21.67;13.63;;;16.50;1.00;;;;;;5037249;28;20478;-80
2022/10/13 09:28:49;;;;;;;20.20;14.53;;;16.30;1.00;;;;;;5030442;28;21101;-80
2022/10/13 09:31:21;;;;;;;19.17;14.60;;;16.30;1.00;;;;;;5031857;28;20551;-80
2022/10/13 09:34:00;;;;;;;23.43;14.57;;;16.20;1.00;;;;;;5017114;28;20487;-82
2022/10/13 09:36:27;;;;;;;20.90;13.57;;;16.20;1.00;;;;;;5028796;28;20495;-81
2022/10/13 09:39:11;;;;;;;19.90;13.73;;;16.20;1.00;;;;;;5028613;28;20473;-84
2022/10/13 09:41:40;;;;;;;15.17;13.23;;;16.20;1.00;;;;;;5026432;28;20899;-81
2022/10/13 09:44:13;;;;;;;19.57;13.73;;;16.20;1.00;;;;;;5030769;28;20480;-82
2022/10/13 09:46:51;;;;;;;17.97;12.97;;;16.10;1.00;;;;;;5030511;28;20461;-81
2022/10/13 09:49:39;;;;;;;16.40;12.47;;;16.20;1.00;;;;;;5030239;28;20544;-81
2022/10/13 09:52:14;;;;;;;18.73;13.37;;;16.30;1.00;;;;;;5031244;28;20553;-82
2022/10/13 09:54:46;;;;;;;21.47;13.60;;;16.40;1.00;;;;;;4990004;28;1083587;-85
2022/10/13 09:57:20;;;;;;;18.00;13.60;;;16.60;1.00;;;;;;5029895;28;20968;-84
2022/10/13 09:59:49;;;;;;;16.23;13.03;;;16.80;1.00;;;;;;5029465;28;20460;-85
2022/10/13 10:02:23;;;;;;;16.67;14.13;;;16.90;1.00;;;;;;5029044;28;20480;-85
2022/10/13 10:04:54;;;;;;;17.37;13.57;;;17.10;1.00;;;;;;5030768;28;20453;-85
2022/10/13 10:07:26;;;;;;;15.00;11.93;;;17.30;1.00;;;;;;5032760;28;20473;-86
2022/10/13 10:09:56;;;;;;;16.40;13.73;;;17.40;1.00;;;;;;5031469;28;20470;-84
2022/10/13 10:12:28;;;;;;;21.13;14.40;;;17.50;1.00;;;;;;5028906;28;20469;-84
2022/10/13 10:14:55;;;;;;;17.80;13.90;;;17.60;1.00;;;;;;5031665;28;20421;-86
2022/10/13 10:17:30;;;;;;;16.57;14.27;;;17.70;1.00;;;;;;5031229;28;20472;-87
2022/10/13 10:20:13;;;;;;;18.43;14.50;;;17.80;1.00;;;;;;5026509;28;20457;-81
2022/10/13 10:22:52;;;;;;;14.40;12.90;;;17.80;1.00;;;;;;5026141;28;21237;-80
2022/10/13 10:25:32;;;;;;;19.47;14.50;;;18.00;1.00;;;;;;5028823;28;20469;-82
2022/10/13 10:28:21;;;;;;;16.53;12.97;;;18.00;1.00;;;;;;5027783;28;20478;-81
2022/10/13 10:30:59;;;;;;;18.37;13.10;;;18.00;1.00;;;;;;5029911;28;20433;-81
2022/10/13 10:33:40;;;;;;;20.23;14.23;;;18.20;1.00;;;;;;5010930;28;20475;-80
2022/10/13 10:36:15;;;;;;;17.83;14.53;;;18.60;1.00;;;;;;5021616;28;20471;-79
2022/10/13 10:38:47;;;;;;;16.63;13.23;;;18.60;1.00;;;;;;5025056;28;20496;-78
2022/10/13 10:41:33;;;;;;;16.87;14.90;;;18.50;1.00;;;;;;5024994;28;20472;-79
2022/10/13 10:44:02;;;;;;;18.07;14.07;;;18.60;1.00;;;;;;5027949;28;20469;-79
2022/10/13 10:46:32;;;;;;;21.37;15.37;;;18.50;1.00;;;;;;5027477;28;20464;-79
2022/10/13 10:49:02;;;;;;;20.37;15.23;;;18.90;1.00;;;;;;5026405;28;20492;-80
2022/10/13 10:51:36;;;;;;;18.57;15.00;;;18.90;1.00;;;;;;5027160;28;20469;-79
2022/10/13 10:54:17;;;;;;;17.27;14.37;;;19.00;1.00;;;;;;5016615;28;20473;-79
2022/10/13 10:56:51;;;;;;;26.50;17.00;;;19.10;1.00;;;;;;5012328;28;20417;-77
2022/10/13 10:59:31;;;;;;;23.13;16.57;;;19.10;1.00;;;;;;5006430;28;20601;-81
2022/10/13 11:02:10;;;;;;;23.63;16.90;;;18.90;1.00;;;;;;5005716;28;20418;-78
2022/10/13 11:04:41;;;;;;;20.80;15.97;;;19.00;1.00;;;;;;5004899;28;20453;-79
2022/10/13 11:07:12;;;;;;;28.87;17.40;;;18.90;1.00;;;;;;5007690;28;20550;-78
2022/10/13 11:10:03;;;;;;;19.53;15.97;;;19.00;1.00;;;;;;5007246;28;20476;-79
2022/10/13 11:12:50;;;;;;;22.87;16.10;;;19.20;1.00;;;;;;5009762;28;20461;-78
2022/10/13 11:15:24;;;;;;;19.10;15.37;;;19.60;1.00;;;;;;5008956;28;21015;-80
2022/10/13 11:17:52;;;;;;;16.90;15.20;;;19.70;1.00;;;;;;5009461;28;20462;-79
2022/10/13 11:20:54;;;;;;;18.57;14.80;;;20.00;1.00;;;;;;5009846;28;20557;-80
2022/10/13 11:23:32;;;;;;;16.90;14.83;;;20.10;1.00;;;;;;4995341;28;20437;-79
2022/10/13 11:26:27;;;;;;;17.73;14.67;;;20.40;1.00;;;;;;5010303;28;20996;-79
2022/10/13 11:28:54;;;;;;;20.40;16.63;;;20.80;1.00;;;;;;5006114;28;20550;-79
2022/10/13 11:31:30;;;;;;;18.77;16.20;;;21.40;1.00;;;;;;5004386;28;20473;-79
2022/10/13 11:34:00;;;;;;;17.17;15.43;;;22.00;1.00;;;;;;5008263;28;20454;-79
2022/10/13 11:36:39;;;;;;;16.90;14.40;;;23.00;1.00;;;;;;5004383;28;20536;-80
2022/10/13 11:39:58;;;;;;;16.07;14.37;;;24.30;1.00;;;;;;5002989;28;20458;-82
2022/10/13 11:43:01;;;;;;;15.43;13.13;;;25.70;1.00;;;;;;4927197;28;20927;-78
2022/10/13 11:45:45;;;;;;;19.43;14.30;;;26.20;1.00;;;;;;4983841;28;20493;-82
2022/10/13 11:48:55;;;;;;;15.67;14.10;;;26.30;1.00;;;;;;5003094;28;20473;-79
2022/10/13 11:51:32;;;;;;;16.60;14.83;;;26.40;1.00;;;;;;4939519;28;20488;-80
2022/10/13 11:54:17;;;;;;;16.60;13.53;;;25.80;1.00;;;;;;4947509;28;20598;-80
2022/10/13 11:56:51;;;;;;;18.93;13.40;;;24.90;1.00;;;;;;5016546;28;20464;-79
2022/10/13 11:59:23;;;;;;;14.53;13.03;;;24.30;1.00;;;;;;5021319;28;20444;-82
2022/10/13 12:01:55;;;;;;;17.23;13.67;;;24.00;1.00;;;;;;5017233;28;20446;-79
2022/10/13 12:04:25;;;;;;;20.40;13.43;;;23.70;1.00;;;;;;5018957;28;20474;-78
2022/10/13 12:07:02;;;;;;;16.53;12.63;;;24.10;1.00;;;;;;5011127;28;20627;-79
2022/10/13 12:09:31;;;;;;;14.63;13.07;;;24.30;1.00;;;;;;5009380;28;20478;-80
2022/10/13 12:12:06;;;;;;;15.30;12.57;;;24.60;1.00;;;;;;5007706;28;20946;-79
2022/10/13 12:14:37;;;;;;;14.80;12.30;;;24.70;1.00;;;;;;5011242;28;20453;-79
2022/10/13 12:17:19;;;;;;;11.87;10.53;;;24.30;1.00;;;;;;5010037;28;20835;-78
2022/10/13 12:19:46;;;;;;;18.40;12.00;;;23.40;1.00;;;;;;5010338;28;20482;-81
2022/10/13 12:22:13;;;;;;;13.73;11.10;;;22.80;1.00;;;;;;5012587;28;21026;-79
2022/10/13 12:24:42;;;;;;;11.97;10.40;;;22.30;1.00;;;;;;5010134;28;20472;-82
2022/10/13 12:27:20;;;;;;;11.67;10.37;;;21.90;1.00;;;;;;5013435;28;20446;-79
2022/10/13 12:29:48;;;;;;;15.60;10.17;;;21.50;1.00;;;;;;5010956;28;20913;-80
2022/10/13 12:32:23;;;;;;;11.90;9.67;;;21.30;1.00;;;;;;5015514;28;20450;-79
2022/10/13 12:34:50;;;;;;;11.53;9.77;;;21.00;1.00;;;;;;5013049;28;20974;-81
2022/10/13 12:37:26;;;;;;;11.80;9.10;;;20.90;1.00;;;;;;5016584;28;20470;-78
2022/10/13 12:39:54;;;;;;;16.00;10.33;;;20.90;1.00;;;;;;5015219;28;20477;-80
2022/10/13 12:42:27;;;;;;;11.30;9.70;;;20.90;1.00;;;;;;5015738;28;20459;-79
2022/10/13 12:44:57;;;;;;;14.77;10.00;;;21.10;1.00;;;;;;5015071;28;20989;-79
2022/10/13 12:47:40;;;;;;;14.60;11.17;;;21.10;1.00;;;;;;5014117;28;20426;-79
2022/10/13 12:50:38;;;;;;;10.77;9.73;;;20.90;1.00;;;;;;5014337;28;20528;-81
2022/10/13 12:53:23;;;;;;;14.43;9.80;;;20.60;1.00;;;;;;4936804;28;20468;-80
2022/10/13 12:55:54;;;;;;;13.10;9.27;;;20.20;1.00;;;;;;4999753;28;20462;-80
2022/10/13 12:58:24;;;;;;;13.20;10.90;;;19.90;1.00;;;;;;5012639;28;20447;-80
2022/10/13 13:01:08;;;;;;;14.27;10.30;;;19.60;1.00;;;;;;5008747;28;21013;-80
2022/10/13 13:03:37;;;;;;;11.57;9.30;;;19.50;1.00;;;;;;5011425;28;20480;-79
2022/10/13 13:06:10;;;;;;;11.80;10.60;;;19.40;1.00;;;;;;5009116;28;20550;-79
2022/10/13 13:08:38;;;;;;;16.53;10.67;;;19.30;1.00;;;;;;5010877;28;20502;-79